Time;durP1;ratioP1;P1;durP2;ratioP2;P2;SDS_P1;SDS_P2;PMS_P1;PMS_P2;Temp;Humidity;BMP_temperature;BMP_pressure;BME280_temperature;BME280_humidity;BME280_pressure;Samples;Min_cycle;Max_cycle;Signal;HPM_P1;HPM_P2
2023/03/04 00:00:27;;;;;;;;;;;;;;;6.11;52.99;100534.69;5398750;32;35612;-75
2023/03/04 00:03:29;;;;;;;;;;;;;;;5.77;53.82;100539.63;5401604;32;35631;-72
2023/03/04 00:06:31;;;;;;;;;;;;;;;5.43;55.18;100533.22;5390678;32;36211;-72
2023/03/04 00:09:32;;;;;;;;;;;;;;;5.09;56.38;100534.63;5396178;32;35559;-75
2023/03/04 00:12:34;;;;;;;;;;;;;;;5.27;55.90;100531.72;5410990;32;36235;-75
2023/03/04 00:15:36;;;;;;;;;;;;;;;5.51;55.15;100533.09;5393007;32;35503;-75
2023/03/04 00:18:38;;;;;;;;;;;;;;;5.30;55.70;100530.84;5398353;32;34417;-74
2023/03/04 00:21:40;;;;;;;;;;;;;;;4.81;57.53;100540.19;5377905;32;34834;-74
2023/03/04 00:24:42;;;;;;;;;;;;;;;5.28;56.62;100528.25;5383646;32;34691;-75
2023/03/04 00:27:44;;;;;;;;;;;;;;;5.26;56.23;100527.41;5406927;32;47383;-72
2023/03/04 00:30:45;;;;;;;;;;;;;;;5.95;54.39;100526.31;5395560;32;35236;-75
2023/03/04 00:33:47;;;;;;;;;;;;;;;6.39;53.04;100515.03;5412389;32;36122;-72
2023/03/04 00:36:49;;;;;;;;;;;;;;;6.22;52.96;100511.87;5399605;32;35115;-75
2023/03/04 00:39:51;;;;;;;;;;;;;;;5.22;56.16;100523.12;5415444;32;36423;-75
2023/03/04 00:42:53;;;;;;;;;;;;;;;5.59;55.37;100520.78;5366908;32;36257;-72
2023/03/04 00:45:55;;;;;;;;;;;;;;;5.37;55.83;100522.88;5381088;32;35544;-76
2023/03/04 00:48:57;;;;;;;;;;;;;;;5.26;56.04;100519.56;5391448;32;36039;-75
2023/03/04 00:51:59;;;;;;;;;;;;;;;6.39;52.92;100522.00;5382229;32;35891;-72
2023/03/04 00:55:00;;;;;;;;;;;;;;;5.80;53.92;100505.69;5416177;32;34690;-72
2023/03/04 00:58:02;;;;;;;;;;;;;;;6.18;53.29;100512.81;5396832;32;36030;-72
2023/03/04 01:01:05;;;;;;;;;;;;;;;5.67;54.91;100507.66;5410299;32;35236;-75
2023/03/04 01:04:07;;;;;;;;;;;;;;;5.66;55.26;100505.91;5398260;32;35479;-72
2023/03/04 01:07:09;;;;;;;;;;;;;;;5.82;54.42;100512.59;5385624;32;36039;-73
2023/03/04 01:10:11;;;;;;;;;;;;;;;6.27;52.60;100503.97;5413736;32;35524;-73
2023/03/04 01:13:13;;;;;;;;;;;;;;;6.03;53.87;100503.53;5395807;32;44491;-76
2023/03/04 01:16:15;;;;;;;;;;;;;;;5.53;55.08;100499.16;5411117;32;35205;-74
2023/03/04 01:19:17;;;;;;;;;;;;;;;5.37;55.54;100488.16;5401160;32;35491;-71
2023/03/04 01:22:19;;;;;;;;;;;;;;;5.40;55.84;100493.28;5404508;32;35568;-73
2023/03/04 01:25:21;;;;;;;;;;;;;;;4.94;57.22;100482.72;5402645;32;35451;-75
2023/03/04 01:28:23;;;;;;;;;;;;;;;5.00;56.91;100493.06;5398151;32;35777;-73
2023/03/04 01:31:24;;;;;;;;;;;;;;;5.95;54.35;100490.63;5408762;32;36501;-73
2023/03/04 01:34:26;;;;;;;;;;;;;;;6.00;53.88;100480.13;5401099;32;35431;-73
2023/03/04 01:37:28;;;;;;;;;;;;;;;5.06;56.87;100480.78;5416390;32;35716;-76
2023/03/04 01:40:30;;;;;;;;;;;;;;;5.19;56.64;100488.44;5398949;32;36077;-73
2023/03/04 01:43:32;;;;;;;;;;;;;;;4.92;57.34;100481.91;5376363;32;35753;-73
2023/03/04 01:46:34;;;;;;;;;;;;;;;5.51;55.63;100474.87;5378025;32;35199;-76
2023/03/04 01:49:36;;;;;;;;;;;;;;;5.09;56.54;100474.69;5399777;32;35345;-73
2023/03/04 01:52:37;;;;;;;;;;;;;;;5.72;54.05;100464.91;5394927;32;36330;-73
2023/03/04 01:55:39;;;;;;;;;;;;;;;6.21;51.13;100457.97;5396974;32;34661;-75
2023/03/04 01:58:41;;;;;;;;;;;;;;;6.48;49.06;100459.12;5399635;32;34759;-73
2023/03/04 02:01:53;;;;;;;;;;;;;;;6.81;46.77;100443.63;5395168;32;44641;-74
2023/03/04 02:04:55;;;;;;;;;;;;;;;5.57;47.61;100459.12;5403872;32;36075;-76
2023/03/04 02:07:57;;;;;;;;;;;;;;;5.54;48.69;100457.44;5389916;32;35556;-74
2023/03/04 02:10:59;;;;;;;;;;;;;;;5.39;48.40;100455.94;5381522;32;35532;-74
2023/03/04 02:14:01;;;;;;;;;;;;;;;5.47;47.90;100460.16;5410595;32;35333;-74
2023/03/04 02:17:04;;;;;;;;;;;;;;;6.17;46.11;100458.91;5393296;32;35719;-74
2023/03/04 02:20:19;;;;;;;;;;;;;;;5.49;47.58;100447.97;5400218;32;34571;-74
2023/03/04 02:23:39;;;;;;;;;;;;;;;5.11;47.88;100436.44;5385402;32;44883;-77
2023/03/04 02:26:42;;;;;;;;;;;;;;;5.14;48.28;100436.38;5388428;32;34578;-74
2023/03/04 02:29:44;;;;;;;;;;;;;;;5.11;48.82;100439.06;5414177;32;43431;-77
2023/03/04 02:32:46;;;;;;;;;;;;;;;5.36;47.63;100435.16;5379420;32;37270;-76
2023/03/04 02:35:48;;;;;;;;;;;;;;;4.86;48.62;100431.62;5397786;32;34698;-76
2023/03/04 02:38:50;;;;;;;;;;;;;;;4.31;50.12;100424.56;5384796;32;35024;-73
2023/03/04 02:41:53;;;;;;;;;;;;;;;4.87;48.23;100409.03;5390161;32;36059;-73
2023/03/04 02:44:59;;;;;;;;;;;;;;;5.66;45.93;100415.50;5385242;32;36400;-73
2023/03/04 02:48:01;;;;;;;;;;;;;;;5.51;45.80;100417.53;5388228;32;36097;-73
2023/03/04 02:51:03;;;;;;;;;;;;;;;5.32;45.63;100411.78;5410296;32;35605;-74
2023/03/04 02:54:13;;;;;;;;;;;;;;;5.25;45.89;100404.94;5399829;32;36091;-74
2023/03/04 02:57:15;;;;;;;;;;;;;;;5.59;44.26;100410.41;5395337;32;44489;-73
2023/03/04 03:00:17;;;;;;;;;;;;;;;5.65;43.42;100407.69;5399516;32;36483;-76
2023/03/04 03:03:19;;;;;;;;;;;;;;;4.84;45.22;100409.94;5396734;32;35671;-77
2023/03/04 03:06:20;;;;;;;;;;;;;;;5.20;43.38;100414.59;5384386;32;35406;-73
2023/03/04 03:09:22;;;;;;;;;;;;;;;5.22;43.34;100408.47;5396242;32;35271;-76
2023/03/04 03:12:24;;;;;;;;;;;;;;;5.80;41.87;100403.97;5412262;32;35607;-73
2023/03/04 03:15:26;;;;;;;;;;;;;;;6.44;39.76;100387.88;5392912;32;35994;-73
2023/03/04 03:18:28;;;;;;;;;;;;;;;5.31;41.50;100403.09;5408306;32;35969;-73
2023/03/04 03:21:30;;;;;;;;;;;;;;;5.35;40.47;100394.34;5395655;32;35559;-76
2023/03/04 03:24:32;;;;;;;;;;;;;;;5.58;40.81;100396.53;5392718;32;35185;-77
2023/03/04 03:27:34;;;;;;;;;;;;;;;5.39;41.04;100390.78;5397753;32;36173;-73
2023/03/04 03:30:36;;;;;;;;;;;;;;;6.18;39.65;100382.31;5398989;32;35248;-74
2023/03/04 03:33:37;;;;;;;;;;;;;;;6.27;39.04;100384.75;5401213;32;35835;-73
2023/03/04 03:36:39;;;;;;;;;;;;;;;5.99;39.30;100387.09;5383792;32;34711;-73
2023/03/04 03:39:41;;;;;;;;;;;;;;;5.80;40.00;100377.88;5397710;32;35164;-75
2023/03/04 03:42:43;;;;;;;;;;;;;;;5.96;39.61;100380.16;5367804;32;44512;-73
2023/03/04 03:45:45;;;;;;;;;;;;;;;5.05;41.58;100377.47;5402379;32;35849;-73
2023/03/04 03:48:47;;;;;;;;;;;;;;;4.68;42.62;100386.75;5394109;32;36143;-76
2023/03/04 03:51:49;;;;;;;;;;;;;;;4.82;42.32;100367.44;5377616;32;35400;-73
2023/03/04 03:54:51;;;;;;;;;;;;;;;4.97;42.21;100376.75;5414273;32;35156;-75
2023/03/04 03:57:53;;;;;;;;;;;;;;;5.58;41.11;100374.81;5391535;32;35279;-73
2023/03/04 04:00:55;;;;;;;;;;;;;;;5.84;40.03;100369.94;5412636;32;35599;-76
2023/03/04 04:03:59;;;;;;;;;;;;;;;5.13;41.68;100373.00;5391139;32;35681;-73
2023/03/04 04:07:01;;;;;;;;;;;;;;;5.37;41.67;100376.06;5392081;32;35465;-73
2023/03/04 04:10:03;;;;;;;;;;;;;;;5.89;40.24;100378.53;5403411;32;35568;-77
2023/03/04 04:13:05;;;;;;;;;;;;;;;6.40;38.61;100370.53;5390735;32;34762;-75
2023/03/04 04:16:08;;;;;;;;;;;;;;;4.57;42.33;100373.88;5405831;32;34859;-76
2023/03/04 04:19:13;;;;;;;;;;;;;;;4.89;42.14;100376.00;5393804;32;34787;-76
2023/03/04 04:22:16;;;;;;;;;;;;;;;5.24;41.59;100377.19;5389476;32;47430;-73
2023/03/04 04:25:18;;;;;;;;;;;;;;;4.82;42.83;100374.38;5383287;32;35334;-73
2023/03/04 04:28:20;;;;;;;;;;;;;;;4.58;43.49;100375.63;5398132;32;36111;-76
2023/03/04 04:31:22;;;;;;;;;;;;;;;5.01;43.03;100377.56;5406163;32;35248;-73
2023/03/04 04:34:24;;;;;;;;;;;;;;;5.14;42.61;100379.06;5396521;32;34864;-76
2023/03/04 04:37:26;;;;;;;;;;;;;;;5.30;42.50;100372.72;5412329;32;36109;-73
2023/03/04 04:40:28;;;;;;;;;;;;;;;5.27;42.41;100370.16;5398000;32;36137;-77
2023/03/04 04:43:29;;;;;;;;;;;;;;;5.57;42.00;100373.09;5376772;32;35966;-74
2023/03/04 04:46:31;;;;;;;;;;;;;;;4.79;43.41;100375.31;5380093;32;36125;-74
2023/03/04 04:49:33;;;;;;;;;;;;;;;4.54;44.53;100366.13;5400530;32;34708;-77
2023/03/04 04:52:35;;;;;;;;;;;;;;;5.10;43.03;100372.22;5405602;32;35456;-76
2023/03/04 04:55:37;;;;;;;;;;;;;;;4.74;44.17;100366.69;5383860;32;34675;-76
2023/03/04 04:58:39;;;;;;;;;;;;;;;4.63;44.45;100374.66;5384952;32;858801;-76
2023/03/04 05:01:41;;;;;;;;;;;;;;;4.55;44.86;100376.53;5381927;32;34714;-74
2023/03/04 05:04:43;;;;;;;;;;;;;;;5.10;43.58;100367.00;5399412;32;45275;-74
2023/03/04 05:07:45;;;;;;;;;;;;;;;5.29;43.55;100355.37;5387651;32;36071;-74
2023/03/04 05:10:47;;;;;;;;;;;;;;;5.55;43.06;100367.06;5389911;32;35362;-74
2023/03/04 05:13:49;;;;;;;;;;;;;;;5.65;42.93;100365.97;5405526;32;36284;-77
2023/03/04 05:16:51;;;;;;;;;;;;;;;4.79;45.77;100366.63;5376830;32;36830;-77
2023/03/04 05:19:53;;;;;;;;;;;;;;;5.10;45.47;100374.81;5411430;32;34797;-77
2023/03/04 05:22:55;;;;;;;;;;;;;;;5.46;44.45;100369.81;5393743;32;36068;-74
2023/03/04 05:25:57;;;;;;;;;;;;;;;4.74;46.58;100373.66;5413921;32;35478;-77
2023/03/04 05:28:59;;;;;;;;;;;;;;;4.88;46.56;100382.97;5398963;32;35226;-76
2023/03/04 05:32:01;;;;;;;;;;;;;;;4.66;47.42;100383.31;5406035;32;36360;-74
2023/03/04 05:35:03;;;;;;;;;;;;;;;4.57;47.65;100380.00;5410077;32;36674;-76
2023/03/04 05:38:06;;;;;;;;;;;;;;;4.15;49.17;100390.97;5397883;32;35505;-74
2023/03/04 05:41:08;;;;;;;;;;;;;;;4.36;48.52;100375.06;5414326;32;34987;-75
2023/03/04 05:44:09;;;;;;;;;;;;;;;4.76;47.72;100377.94;5370360;32;36141;-77
2023/03/04 05:47:11;;;;;;;;;;;;;;;4.92;47.31;100385.53;5392256;32;36026;-73
2023/03/04 05:50:13;;;;;;;;;;;;;;;4.20;49.07;100384.84;5401681;32;45188;-74
2023/03/04 05:53:15;;;;;;;;;;;;;;;4.31;48.67;100387.28;5403063;32;34674;-72
2023/03/04 05:56:18;;;;;;;;;;;;;;;4.21;49.16;100385.69;5411172;32;35775;-77
2023/03/04 05:59:20;;;;;;;;;;;;;;;4.79;47.76;100392.66;5398889;32;35252;-73
2023/03/04 06:02:22;;;;;;;;;;;;;;;3.92;49.83;100404.25;5409863;32;35342;-74
2023/03/04 06:05:23;;;;;;;;;;;;;;;4.38;48.95;100399.34;5388323;32;34886;-75
2023/03/04 06:08:26;;;;;;;;;;;;;;;5.65;45.61;100402.47;5407532;32;35681;-74
2023/03/04 06:11:27;;;;;;;;;;;;;;;6.82;43.60;100393.09;5402669;32;35150;-77
2023/03/04 06:14:29;;;;;;;;;;;;;;;6.63;43.82;100392.66;5403667;32;34778;-77
2023/03/04 06:17:32;;;;;;;;;;;;;;;7.51;41.89;100394.84;5390340;32;35618;-74
2023/03/04 06:20:33;;;;;;;;;;;;;;;8.25;40.61;100398.91;5399977;32;34483;-76
2023/03/04 06:23:35;;;;;;;;;;;;;;;10.00;37.23;100395.75;5409676;32;35513;-77
2023/03/04 06:26:37;;;;;;;;;;;;;;;10.67;35.42;100387.09;5401753;32;34600;-76
2023/03/04 06:29:39;;;;;;;;;;;;;;;9.69;36.63;100400.38;5411154;32;34540;-73
2023/03/04 06:32:43;;;;;;;;;;;;;;;10.37;34.79;100394.41;5401178;32;35211;-73
2023/03/04 06:35:45;;;;;;;;;;;;;;;11.01;34.10;100393.63;5402601;32;44559;-76
2023/03/04 06:38:47;;;;;;;;;;;;;;;8.20;40.23;100406.03;5398275;32;35657;-73
2023/03/04 06:41:48;;;;;;;;;;;;;;;8.65;39.59;100404.69;5386541;32;36054;-77
2023/03/04 06:44:50;;;;;;;;;;;;;;;9.07;37.99;100411.22;5395496;32;36658;-76
2023/03/04 06:47:52;;;;;;;;;;;;;;;10.03;36.33;100403.50;5392422;32;35300;-77
2023/03/04 06:50:54;;;;;;;;;;;;;;;10.25;36.24;100415.91;5413006;32;36151;-74
2023/03/04 06:53:56;;;;;;;;;;;;;;;11.72;33.18;100402.03;5387866;32;36558;-74
2023/03/04 06:56:58;;;;;;;;;;;;;;;12.71;31.62;100397.56;5397246;32;36150;-78
2023/03/04 07:00:02;;;;;;;;;;;;;;;10.20;35.14;100410.78;5409773;32;35266;-74
2023/03/04 07:03:04;;;;;;;;;;;;;;;12.16;32.34;100402.75;5397044;32;35636;-77
2023/03/04 07:06:06;;;;;;;;;;;;;;;9.99;35.70;100414.19;5398097;32;34768;-77
2023/03/04 07:09:08;;;;;;;;;;;;;;;10.03;36.02;100400.88;5380122;32;34608;-77
2023/03/04 07:12:10;;;;;;;;;;;;;;;10.89;34.63;100394.16;5397257;32;35120;-76
2023/03/04 07:15:12;;;;;;;;;;;;;;;12.80;31.48;100391.81;5395216;32;35625;-74
2023/03/04 07:18:14;;;;;;;;;;;;;;;10.89;33.78;100402.91;5399180;32;45300;-77
2023/03/04 07:21:16;;;;;;;;;;;;;;;11.41;33.52;100394.62;5413745;32;36426;-74
2023/03/04 07:24:18;;;;;;;;;;;;;;;12.16;32.42;100398.31;5378955;32;35560;-77
2023/03/04 07:27:20;;;;;;;;;;;;;;;10.81;35.39;100408.44;5415167;32;34874;-77
2023/03/04 07:30:22;;;;;;;;;;;;;;;11.68;33.07;100397.84;5400115;32;36173;-76
2023/03/04 07:33:23;;;;;;;;;;;;;;;11.46;33.75;100396.13;5396452;32;36637;-75
2023/03/04 07:36:26;;;;;;;;;;;;;;;11.95;33.08;100396.66;5402816;32;36320;-77
2023/03/04 07:39:28;;;;;;;;;;;;;;;11.88;32.95;100390.81;5386227;32;36036;-78
2023/03/04 07:42:30;;;;;;;;;;;;;;;13.38;30.59;100383.72;5384765;32;35397;-73
2023/03/04 07:45:31;;;;;;;;;;;;;;;12.59;31.53;100385.81;5390380;32;36517;-77
2023/03/04 07:48:34;;;;;;;;;;;;;;;12.60;31.08;100384.03;5406396;32;34627;-75
2023/03/04 07:51:36;;;;;;;;;;;;;;;12.30;31.71;100387.19;5400120;32;35208;-75
2023/03/04 07:54:38;;;;;;;;;;;;;;;13.62;29.46;100378.09;5409921;32;35706;-80
2023/03/04 07:57:40;;;;;;;;;;;;;;;13.42;29.41;100384.41;5400654;32;36171;-76
2023/03/04 08:00:42;;;;;;;;;;;;;;;14.94;26.97;100371.78;5398861;32;34580;-75
2023/03/04 08:03:44;;;;;;;;;;;;;;;12.63;28.39;100384.75;5408761;32;44827;-77
2023/03/04 08:06:47;;;;;;;;;;;;;;;9.80;33.59;100400.88;5370065;32;35711;-73
2023/03/04 08:09:49;;;;;;;;;;;;;;;8.57;34.62;100401.44;5409648;32;35631;-77
2023/03/04 08:12:51;;;;;;;;;;;;;;;8.86;34.48;100402.28;5396748;32;35136;-71
2023/03/04 08:15:54;;;;;;;;;;;;;;;8.30;35.50;100397.84;5404882;32;36224;-74
2023/03/04 08:18:57;;;;;;;;;;;;;;;7.82;36.22;100400.13;5398840;32;36143;-73
2023/03/04 08:21:58;;;;;;;;;;;;;;;7.70;36.53;100393.44;5393785;32;35588;-74
2023/03/04 08:25:00;;;;;;;;;;;;;;;7.90;36.79;100392.91;5408208;32;35726;-76
2023/03/04 08:28:02;;;;;;;;;;;;;;;7.64;36.79;100390.16;5396853;32;35865;-71
2023/03/04 08:31:04;;;;;;;;;;;;;;;6.96;38.22;100407.56;5412754;32;35982;-72
2023/03/04 08:34:08;;;;;;;;;;;;;;;7.17;38.35;100405.31;5388791;32;36058;-71
2023/03/04 08:37:10;;;;;;;;;;;;;;;6.89;39.24;100407.72;5375260;32;34891;-74
2023/03/04 08:40:13;;;;;;;;;;;;;;;7.73;38.09;100397.72;5387102;32;39430;-71
2023/03/04 08:43:15;;;;;;;;;;;;;;;7.29;38.75;100407.63;5363271;32;34629;-74
2023/03/04 08:46:16;;;;;;;;;;;;;;;7.47;38.82;100395.81;5396553;32;35506;-73
2023/03/04 08:49:18;;;;;;;;;;;;;;;7.74;38.51;100394.25;5382661;32;34783;-78
2023/03/04 08:52:20;;;;;;;;;;;;;;;7.73;38.79;100390.78;5379786;32;36074;-74
2023/03/04 08:55:22;;;;;;;;;;;;;;;7.44;39.50;100388.06;5383201;32;35235;-74
2023/03/04 08:58:24;;;;;;;;;;;;;;;7.39;40.07;100389.94;5404985;32;35619;-73
2023/03/04 09:01:26;;;;;;;;;;;;;;;7.68;39.72;100386.56;5392467;32;34741;-73
2023/03/04 09:04:28;;;;;;;;;;;;;;;7.78;39.72;100380.16;5389832;32;36989;-77
2023/03/04 09:07:30;;;;;;;;;;;;;;;8.07;38.95;100384.59;5394585;32;35278;-76
2023/03/04 09:10:32;;;;;;;;;;;;;;;8.33;38.70;100375.97;5384834;32;35332;-77
2023/03/04 09:13:34;;;;;;;;;;;;;;;8.41;38.47;100374.00;5410461;32;35966;-77
2023/03/04 09:16:35;;;;;;;;;;;;;;;8.41;38.87;100368.75;5385726;32;34893;-77
2023/03/04 09:19:37;;;;;;;;;;;;;;;7.54;40.44;100369.47;5399633;32;35106;-75
2023/03/04 09:22:40;;;;;;;;;;;;;;;8.09;39.70;100367.91;5395241;32;35990;-75
2023/03/04 09:25:43;;;;;;;;;;;;;;;8.12;39.68;100367.84;5383979;32;35368;-77
2023/03/04 09:28:44;;;;;;;;;;;;;;;8.54;39.11;100372.72;5395697;32;47092;-74
2023/03/04 09:31:46;;;;;;;;;;;;;;;8.21;39.87;100371.09;5390694;32;35289;-73
2023/03/04 09:34:48;;;;;;;;;;;;;;;9.12;38.28;100362.13;5403054;32;35528;-75
2023/03/04 09:37:51;;;;;;;;;;;;;;;8.95;38.57;100365.28;5395595;32;35243;-71
2023/03/04 09:40:53;;;;;;;;;;;;;;;8.77;38.79;100358.91;5389752;32;35724;-75
2023/03/04 09:43:55;;;;;;;;;;;;;;;8.77;39.05;100356.28;5366581;32;36368;-74
2023/03/04 09:46:58;;;;;;;;;;;;;;;9.14;38.39;100352.44;5371610;32;35957;-75
2023/03/04 09:50:00;;;;;;;;;;;;;;;8.97;38.02;100354.78;5387058;32;36215;-74
2023/03/04 09:53:07;;;;;;;;;;;;;;;9.04;38.52;100351.03;5384251;32;34950;-73
2023/03/04 09:56:09;;;;;;;;;;;;;;;8.97;38.17;100346.91;5386354;32;34481;-71
2023/03/04 09:59:14;;;;;;;;;;;;;;;8.81;38.97;100354.41;5380818;32;35216;-74
2023/03/04 10:02:21;;;;;;;;;;;;;;;8.63;38.99;100348.87;5385804;32;44710;-76
2023/03/04 10:05:23;;;;;;;;;;;;;;;8.97;38.63;100333.81;5405734;32;35959;-75
2023/03/04 10:08:44;;;;;;;;;;;;;;;8.77;38.76;100344.94;5360379;32;35413;-71
2023/03/04 10:11:52;;;;;;;;;;;;;;;8.85;38.95;100345.53;5404975;32;47266;-72
2023/03/04 10:14:58;;;;;;;;;;;;;;;11.06;34.63;100323.28;5391967;32;36198;-76
2023/03/04 10:18:13;;;;;;;;;;;;;;;12.50;32.21;100319.50;5401778;32;35739;-71
2023/03/04 10:21:15;;;;;;;;;;;;;;;11.42;33.62;100328.78;5402916;32;46317;-73
2023/03/04 10:24:18;;;;;;;;;;;;;;;13.53;30.85;100331.91;5381279;32;36127;-72
2023/03/04 10:27:20;;;;;;;;;;;;;;;14.02;30.02;100313.44;5408935;32;35729;-76
2023/03/04 10:30:37;;;;;;;;;;;;;;;13.94;30.24;100302.44;5391385;32;34923;-74
2023/03/04 10:33:40;;;;;;;;;;;;;;;12.36;31.87;100307.81;5393049;32;34602;-76
2023/03/04 10:36:46;;;;;;;;;;;;;;;13.61;30.87;100295.41;5385947;32;35450;-77
2023/03/04 10:39:49;;;;;;;;;;;;;;;13.59;30.77;100306.94;5384419;32;46785;-74
2023/03/04 10:42:51;;;;;;;;;;;;;;;13.17;31.16;100287.97;5360116;32;35333;-76
2023/03/04 10:45:53;;;;;;;;;;;;;;;15.00;28.00;100292.91;5373647;32;37418;-73
2023/03/04 10:48:56;;;;;;;;;;;;;;;14.39;29.26;100280.53;5405923;32;34788;-76
2023/03/04 10:52:16;;;;;;;;;;;;;;;15.14;27.92;100285.00;5387356;32;34892;-73
2023/03/04 10:55:20;;;;;;;;;;;;;;;15.08;27.78;100272.16;5405105;32;45056;-73
2023/03/04 10:58:22;;;;;;;;;;;;;;;14.53;27.81;100272.72;5394899;32;35828;-75
2023/03/04 11:01:24;;;;;;;;;;;;;;;15.98;25.80;100266.63;5399096;32;35394;-79
2023/03/04 11:04:31;;;;;;;;;;;;;;;17.55;24.00;100249.09;5407142;32;36011;-78
2023/03/04 11:07:35;;;;;;;;;;;;;;;14.99;26.75;100250.66;5366773;32;35524;-78
2023/03/04 11:10:55;;;;;;;;;;;;;;;15.73;25.49;100239.12;5394042;32;35274;-76
2023/03/04 11:13:58;;;;;;;;;;;;;;;15.14;25.89;100239.16;5402095;32;36035;-75
2023/03/04 11:17:20;;;;;;;;;;;;;;;15.28;26.14;100240.97;5379190;32;35696;-72
2023/03/04 11:20:32;;;;;;;;;;;;;;;15.13;26.58;100242.72;5411947;32;39000;-75
2023/03/04 11:23:38;;;;;;;;;;;;;;;15.06;26.50;100242.25;5375237;32;34840;-72
2023/03/04 11:26:48;;;;;;;;;;;;;;;14.72;27.35;100232.81;5382856;32;36624;-76
2023/03/04 11:29:50;;;;;;;;;;;;;;;15.27;26.81;100231.34;5387809;32;44929;-76
2023/03/04 11:32:53;;;;;;;;;;;;;;;14.44;28.03;100228.25;5369318;32;34783;-75
2023/03/04 11:35:57;;;;;;;;;;;;;;;13.15;29.73;100244.13;5397040;32;36167;-77
2023/03/04 11:38:59;;;;;;;;;;;;;;;14.16;28.61;100222.81;5398607;32;35351;-75
2023/03/04 11:42:22;;;;;;;;;;;;;;;14.13;28.55;100218.56;5376921;32;35098;-76
2023/03/04 11:45:27;;;;;;;;;;;;;;;14.43;28.06;100220.41;5376885;32;36630;-74
2023/03/04 11:48:45;;;;;;;;;;;;;;;14.24;28.10;100217.97;5381614;32;35499;-72
2023/03/04 11:52:05;;;;;;;;;;;;;;;14.46;27.74;100197.31;5411353;32;48493;-72
2023/03/04 11:55:07;;;;;;;;;;;;;;;16.04;25.35;100203.56;5398687;32;34483;-76
2023/03/04 11:58:28;;;;;;;;;;;;;;;15.51;25.86;100195.38;5409740;32;35283;-73
2023/03/04 12:01:48;;;;;;;;;;;;;;;16.22;25.07;100200.53;5398507;32;35518;-74
2023/03/04 12:05:09;;;;;;;;;;;;;;;16.49;24.99;100195.25;5371617;32;43927;-75
2023/03/04 12:08:14;;;;;;;;;;;;;;;16.37;25.19;100195.19;5401982;32;35561;-73
2023/03/04 12:11:28;;;;;;;;;;;;;;;15.81;25.46;100189.97;5382670;32;46200;-71
2023/03/04 12:14:30;;;;;;;;;;;;;;;15.40;26.48;100187.25;5409798;32;35777;-72
2023/03/04 12:17:51;;;;;;;;;;;;;;;15.41;26.66;100179.22;5397420;32;35981;-76
2023/03/04 12:20:56;;;;;;;;;;;;;;;15.62;26.87;100171.75;5396315;32;34782;-76
2023/03/04 12:24:01;;;;;;;;;;;;;;;15.83;26.50;100173.97;5393782;32;36174;-73
2023/03/04 12:27:07;;;;;;;;;;;;;;;15.82;26.34;100156.38;5375145;32;35560;-77
2023/03/04 12:30:21;;;;;;;;;;;;;;;17.63;24.16;100155.53;5396113;32;36191;-76
2023/03/04 12:33:39;;;;;;;;;;;;;;;16.66;24.99;100156.94;5400849;32;35736;-74
2023/03/04 12:36:48;;;;;;;;;;;;;;;15.53;26.74;100158.22;5398098;32;34719;-79
2023/03/04 12:39:57;;;;;;;;;;;;;;;16.08;25.79;100146.72;5414226;32;44747;-78
2023/03/04 12:43:07;;;;;;;;;;;;;;;15.11;27.25;100138.75;5353483;32;35039;-78
2023/03/04 12:46:30;;;;;;;;;;;;;;;16.63;25.28;100138.59;5383018;32;35410;-77
2023/03/04 12:49:39;;;;;;;;;;;;;;;14.98;27.39;100127.22;5393896;32;36012;-75
2023/03/04 12:53:01;;;;;;;;;;;;;;;15.06;27.51;100125.78;5395992;32;35810;-76
2023/03/04 12:56:03;;;;;;;;;;;;;;;17.38;24.47;100109.47;5409584;32;35468;-75
2023/03/04 12:59:05;;;;;;;;;;;;;;;16.51;25.10;100113.75;5386294;32;35174;-77
2023/03/04 13:02:26;;;;;;;;;;;;;;;18.20;23.48;100102.56;5392144;32;34548;-73
2023/03/04 13:05:28;;;;;;;;;;;;;;;17.47;23.97;100110.63;5379660;32;35978;-78
2023/03/04 13:08:33;;;;;;;;;;;;;;;17.70;23.93;100104.47;5392584;32;35025;-76
2023/03/04 13:11:40;;;;;;;;;;;;;;;17.67;23.86;100093.25;5397425;32;32767;-77
2023/03/04 13:15:00;;;;;;;;;;;;;;;18.25;22.58;100100.44;5373467;32;36411;-74
2023/03/04 13:18:11;;;;;;;;;;;;;;;16.99;24.33;100086.59;5409912;32;36109;-74
2023/03/04 13:21:13;;;;;;;;;;;;;;;16.38;25.42;100085.50;5405904;32;47490;-77
2023/03/04 13:24:34;;;;;;;;;;;;;;;19.35;22.36;100073.22;5395436;32;35522;-77
2023/03/04 13:28:08;;;;;;;;;;;;;;;19.37;22.22;100067.75;5396932;32;34565;-75
2023/03/04 13:31:20;;;;;;;;;;;;;;;19.49;21.98;100062.28;5365861;32;35989;-77
2023/03/04 13:34:42;;;;;;;;;;;;;;;19.09;22.51;100053.97;5406325;32;36981;-74
2023/03/04 13:37:55;;;;;;;;;;;;;;;20.37;20.17;100036.38;5414547;32;44437;-77
2023/03/04 13:41:19;;;;;;;;;;;;;;;21.29;18.81;100034.56;5385115;32;35818;-77
2023/03/04 13:44:32;;;;;;;;;;;;;;;22.33;17.74;100030.41;5380251;32;47264;-74
2023/03/04 13:47:40;;;;;;;;;;;;;;;21.60;18.02;100032.66;5389059;32;34979;-74
2023/03/04 13:50:45;;;;;;;;;;;;;;;20.71;18.08;100024.50;5371861;32;36114;-78
2023/03/04 13:54:13;;;;;;;;;;;;;;;22.68;16.49;100027.91;5399827;32;44466;-74
2023/03/04 13:57:19;;;;;;;;;;;;;;;21.49;16.70;100019.41;5389540;32;44104;-72
2023/03/04 14:00:20;;;;;;;;;;;;;;;20.33;17.26;100019.75;5409039;32;36292;-73
2023/03/04 14:03:24;;;;;;;;;;;;;;;22.29;15.76;100015.62;5386322;32;35497;-76
2023/03/04 14:06:27;;;;;;;;;;;;;;;22.46;16.03;99998.78;5360164;32;35401;-77
2023/03/04 14:09:30;;;;;;;;;;;;;;;23.99;14.67;99999.91;5413812;32;35171;-73
2023/03/04 14:12:33;;;;;;;;;;;;;;;18.38;18.83;100021.38;5398414;32;34826;-78
2023/03/04 14:15:35;;;;;;;;;;;;;;;16.76;20.76;100021.88;5395964;32;34683;-77
2023/03/04 14:18:37;;;;;;;;;;;;;;;15.43;21.80;100028.16;5384995;32;35733;-78
2023/03/04 14:21:42;;;;;;;;;;;;;;;14.35;22.86;100017.25;5407736;32;34561;-75
2023/03/04 14:25:05;;;;;;;;;;;;;;;13.72;23.53;100028.94;5387685;32;45152;-73
2023/03/04 14:28:11;;;;;;;;;;;;;;;13.26;24.39;100028.03;5398824;32;35029;-73
2023/03/04 14:31:17;;;;;;;;;;;;;;;13.66;24.21;100018.72;5383895;32;45919;-74
2023/03/04 14:34:30;;;;;;;;;;;;;;;13.52;24.92;100026.56;5387353;32;34743;-74
2023/03/04 14:37:38;;;;;;;;;;;;;;;12.45;26.04;100022.72;5410463;32;34788;-74
2023/03/04 14:40:40;;;;;;;;;;;;;;;13.14;25.33;100031.34;5389034;32;34937;-75
2023/03/04 14:43:48;;;;;;;;;;;;;;;12.73;25.61;100034.41;5352949;32;38640;-73
2023/03/04 14:46:52;;;;;;;;;;;;;;;12.53;25.91;100032.00;5406543;32;34964;-76
2023/03/04 14:50:15;;;;;;;;;;;;;;;12.67;26.14;100026.84;5398136;32;34627;-75
2023/03/04 14:53:18;;;;;;;;;;;;;;;12.07;27.18;100029.09;5409266;32;44749;-75
2023/03/04 14:56:26;;;;;;;;;;;;;;;12.02;27.70;100044.28;5399327;32;34927;-76
2023/03/04 14:59:32;;;;;;;;;;;;;;;12.15;27.99;100025.12;5401883;32;35600;-76
2023/03/04 15:02:35;;;;;;;;;;;;;;;12.41;27.80;100042.25;5412990;32;34775;-74
2023/03/04 15:05:36;;;;;;;;;;;;;;;12.38;27.95;100029.22;5388339;32;35481;-75
2023/03/04 15:08:38;;;;;;;;;;;;;;;12.51;27.99;100033.87;5391785;32;35788;-74
2023/03/04 15:12:02;;;;;;;;;;;;;;;11.95;29.37;100038.47;5383820;32;35750;-73
2023/03/04 15:15:24;;;;;;;;;;;;;;;13.06;27.80;100030.87;5389220;32;35698;-73
2023/03/04 15:18:28;;;;;;;;;;;;;;;11.76;29.73;100042.91;5393608;32;35259;-74
2023/03/04 15:21:30;;;;;;;;;;;;;;;12.01;29.60;100035.53;5382654;32;35868;-74
2023/03/04 15:24:32;;;;;;;;;;;;;;;11.59;30.02;100033.19;5409797;32;36264;-71
2023/03/04 15:27:34;;;;;;;;;;;;;;;11.59;30.23;100033.19;5398008;32;35135;-71
2023/03/04 15:30:36;;;;;;;;;;;;;;;11.26;30.55;100031.28;5409757;32;34728;-74
2023/03/04 15:33:38;;;;;;;;;;;;;;;11.00;31.30;100044.78;5402883;32;35624;-73
2023/03/04 15:36:40;;;;;;;;;;;;;;;10.74;32.12;100049.47;5397430;32;35904;-74
2023/03/04 15:39:42;;;;;;;;;;;;;;;11.48;31.08;100043.41;5414871;32;36168;-75
2023/03/04 15:42:44;;;;;;;;;;;;;;;11.61;31.04;100044.53;5365674;32;45065;-76
2023/03/04 15:45:46;;;;;;;;;;;;;;;11.18;31.72;100040.47;5392542;32;35599;-73
2023/03/04 15:48:48;;;;;;;;;;;;;;;11.04;31.90;100038.47;5376263;32;35244;-73
2023/03/04 15:51:51;;;;;;;;;;;;;;;10.82;32.62;100038.62;5405420;32;35027;-72
2023/03/04 15:54:53;;;;;;;;;;;;;;;11.01;31.96;100049.12;5402402;32;35754;-75